createdAt,value
2019-05-02T00:01:34.873Z,114.00
2019-05-02T00:04:04.908Z,104.20
2019-05-02T00:06:37.936Z,101.40
2019-05-02T00:09:09.081Z,107.15
2019-05-02T00:11:39.964Z,105.13
2019-05-02T00:14:09.792Z,100.80
2019-05-02T00:16:39.677Z,108.90
2019-05-02T00:19:13.961Z,106.13
2019-05-02T00:21:59.575Z,105.53
2019-05-02T00:24:29.297Z,108.60
2019-05-02T00:27:01.355Z,105.97
2019-05-02T00:29:29.855Z,112.57
2019-05-02T00:31:59.232Z,111.50
2019-05-02T00:34:28.637Z,113.80
2019-05-02T00:36:58.053Z,117.73
2019-05-02T00:39:27.511Z,115.77
2019-05-02T00:41:56.910Z,109.63
2019-05-02T00:44:26.305Z,103.57
2019-05-02T00:46:57.316Z,116.07
2019-05-02T00:49:30.822Z,115.57
2019-05-02T00:52:01.357Z,117.37
2019-05-02T00:54:28.990Z,112.20
2019-05-02T00:56:58.361Z,116.53
2019-05-02T00:59:27.755Z,123.45
2019-05-02T01:02:00.074Z,111.77
2019-05-02T01:04:31.618Z,108.03
2019-05-02T01:07:01.083Z,115.47
2019-05-02T01:09:31.808Z,108.17
2019-05-02T01:12:03.057Z,112.97
2019-05-02T01:14:33.291Z,118.50
2019-05-02T01:17:03.037Z,117.82
2019-05-02T01:19:32.443Z,119.00
2019-05-02T01:22:01.848Z,114.08
2019-05-02T01:24:34.183Z,115.83
2019-05-02T01:27:09.859Z,117.40
2019-05-02T01:29:40.892Z,112.63
2019-05-02T01:32:17.877Z,114.73
2019-05-02T01:34:56.314Z,118.00
2019-05-02T01:37:27.542Z,108.27
2019-05-02T01:39:57.273Z,111.83
2019-05-02T01:42:39.056Z,118.70
2019-05-02T01:44:57.792Z,117.72
2019-05-02T01:47:29.187Z,119.57
2019-05-02T01:49:59.206Z,111.47
2019-05-02T01:52:28.752Z,108.80
2019-05-02T01:54:58.190Z,108.00
2019-05-02T01:57:27.528Z,115.53
2019-05-02T01:59:57.043Z,109.53
2019-05-02T02:02:28.059Z,112.63
2019-05-02T02:04:58.058Z,108.33
2019-05-02T02:07:27.547Z,105.70
2019-05-02T02:09:56.935Z,111.67
2019-05-02T02:12:26.321Z,105.03
2019-05-02T02:14:55.930Z,105.27
2019-05-02T02:17:25.362Z,105.03
2019-05-02T02:19:56.370Z,104.63
2019-05-02T02:22:33.923Z,104.07
2019-05-02T02:25:19.489Z,111.50
2019-05-02T02:27:48.882Z,109.57
2019-05-02T02:30:24.650Z,104.50
2019-05-02T02:32:49.649Z,109.30
2019-05-02T02:35:19.030Z,108.80
2019-05-02T02:37:53.086Z,110.60
2019-05-02T02:40:19.566Z,108.67
2019-05-02T02:42:49.400Z,102.60
2019-05-02T02:45:45.174Z,109.00
2019-05-02T02:48:14.581Z,107.93
2019-05-02T02:50:45.261Z,102.67
2019-05-02T02:53:18.230Z,105.67
2019-05-02T02:55:47.728Z,109.50
2019-05-02T02:58:17.116Z,105.90
2019-05-02T03:00:47.492Z,99.63
2019-05-02T03:03:20.953Z,103.20
2019-05-02T03:05:48.871Z,97.40
2019-05-02T03:08:18.230Z,102.20
2019-05-02T03:10:47.914Z,114.10
2019-05-02T03:13:27.686Z,96.23
2019-05-02T03:16:09.321Z,102.90
2019-05-02T03:18:40.581Z,96.42
2019-05-02T03:21:13.260Z,93.27
2019-05-02T03:23:41.554Z,104.90
2019-05-02T03:26:15.170Z,90.37
2019-05-02T03:28:42.460Z,91.93
2019-05-02T03:31:24.109Z,94.30
2019-05-02T03:33:54.537Z,99.63
2019-05-02T03:36:28.868Z,101.17
2019-05-02T03:38:45.761Z,96.03
2019-05-02T03:41:20.721Z,101.57
2019-05-02T03:43:46.830Z,109.07
2019-05-02T03:46:20.644Z,104.10
2019-05-02T03:48:48.241Z,106.00
2019-05-02T03:51:21.450Z,111.00
2019-05-02T03:53:48.959Z,102.13
2019-05-02T03:56:18.425Z,98.30
2019-05-02T03:58:56.488Z,101.67
2019-05-02T04:01:20.008Z,97.80
2019-05-02T04:03:49.459Z,102.00
2019-05-02T04:06:21.644Z,101.97
2019-05-02T04:08:58.706Z,102.77
2019-05-02T04:11:25.735Z,104.60
2019-05-02T04:13:56.235Z,95.17
2019-05-02T04:16:28.810Z,95.47
2019-05-02T04:19:01.284Z,96.90
2019-05-02T04:21:31.457Z,95.87
2019-05-02T04:24:10.769Z,102.83
2019-05-02T04:26:34.144Z,102.03
2019-05-02T04:29:03.787Z,96.00
2019-05-02T04:31:33.925Z,94.83
2019-05-02T04:34:14.161Z,101.72
2019-05-02T04:36:34.571Z,98.97
2019-05-02T04:39:11.637Z,107.60
2019-05-02T04:41:39.179Z,102.05
2019-05-02T04:44:09.072Z,108.43
2019-05-02T04:46:38.949Z,106.87
2019-05-02T04:49:09.158Z,101.30
2019-05-02T04:51:38.769Z,102.23
2019-05-02T04:54:09.214Z,102.30
2019-05-02T04:56:48.267Z,105.13
2019-05-02T04:59:18.112Z,99.87
2019-05-02T05:01:49.076Z,100.60
2019-05-02T05:04:12.272Z,108.53
2019-05-02T05:06:52.643Z,102.27
2019-05-02T05:09:14.922Z,90.13
2019-05-02T05:11:44.608Z,103.17
2019-05-02T05:14:14.065Z,110.50
2019-05-02T05:16:45.510Z,102.63
2019-05-02T05:19:14.611Z,107.00
2019-05-02T05:21:44.400Z,102.67
2019-05-02T05:24:15.576Z,106.00
2019-05-02T05:26:47.671Z,96.00
2019-05-02T05:29:19.382Z,99.77
2019-05-02T05:31:48.361Z,107.73
2019-05-02T05:34:17.779Z,103.23
2019-05-02T05:36:48.156Z,102.57
2019-05-02T05:39:17.812Z,104.60
2019-05-02T05:41:52.012Z,94.50
2019-05-02T05:44:23.333Z,98.87
2019-05-02T05:46:50.207Z,95.63
2019-05-02T05:49:21.754Z,98.27
2019-05-02T05:51:54.559Z,95.13
2019-05-02T05:54:22.451Z,92.40
2019-05-02T05:56:51.907Z,84.97
2019-05-02T05:59:22.242Z,91.13
2019-05-02T06:01:52.685Z,88.80
2019-05-02T06:04:24.951Z,97.00
2019-05-02T06:06:53.981Z,89.07
2019-05-02T06:09:26.220Z,87.07
2019-05-02T06:12:01.472Z,97.33
2019-05-02T06:14:30.866Z,89.37
2019-05-02T06:17:00.608Z,88.63
2019-05-02T06:19:29.995Z,83.30
2019-05-02T06:22:00.269Z,84.00
2019-05-02T06:24:33.633Z,82.45
2019-05-02T06:27:01.710Z,80.40
2019-05-02T06:29:31.191Z,77.95
2019-05-02T06:32:04.299Z,87.13
2019-05-02T06:34:38.293Z,87.90
2019-05-02T06:37:08.211Z,77.27
2019-05-02T06:39:36.484Z,78.47
2019-05-02T06:42:05.973Z,70.90
2019-05-02T06:44:35.547Z,64.50
2019-05-02T06:47:06.949Z,69.20
2019-05-02T06:49:36.362Z,61.00
2019-05-02T06:52:06.451Z,57.98
2019-05-02T06:54:36.090Z,66.63
2019-05-02T06:57:05.555Z,66.90
2019-05-02T06:59:34.979Z,68.92
2019-05-02T07:02:04.465Z,71.00
2019-05-02T07:04:33.886Z,67.92
2019-05-02T07:07:03.451Z,63.83
2019-05-02T07:09:40.479Z,71.53
2019-05-02T07:12:04.560Z,65.70
2019-05-02T07:14:34.035Z,69.73
2019-05-02T07:17:08.030Z,66.07
2019-05-02T07:19:41.759Z,75.10
2019-05-02T07:22:11.246Z,69.50
2019-05-02T07:24:40.994Z,64.93
2019-05-02T07:27:10.387Z,64.80
2019-05-02T07:29:39.825Z,68.30
2019-05-02T07:32:09.281Z,70.70
2019-05-02T07:34:38.704Z,72.23
2019-05-02T07:37:12.157Z,70.97
2019-05-02T07:39:40.983Z,66.97
2019-05-02T07:42:10.757Z,74.17
2019-05-02T07:44:42.485Z,77.03
2019-05-02T07:47:12.028Z,81.23
2019-05-02T07:49:41.467Z,73.55
2019-05-02T07:52:10.901Z,69.17
2019-05-02T07:54:41.148Z,69.53
2019-05-02T07:57:10.584Z,72.07
2019-05-02T07:59:39.966Z,73.92
2019-05-02T08:02:09.448Z,68.70
2019-05-02T08:04:43.650Z,70.00
2019-05-02T08:07:10.054Z,71.53
2019-05-02T08:09:44.061Z,67.53
2019-05-02T08:12:11.292Z,68.13
2019-05-02T08:14:40.750Z,69.83
2019-05-02T08:17:16.876Z,68.40
2019-05-02T08:19:43.192Z,67.82
2019-05-02T08:22:14.533Z,64.03
2019-05-02T08:24:45.395Z,65.93
2019-05-02T08:27:16.415Z,66.87
2019-05-02T08:29:45.800Z,59.73
2019-05-02T08:32:15.452Z,66.45
2019-05-02T08:34:46.117Z,61.27
2019-05-02T08:37:16.016Z,65.13
2019-05-02T08:39:45.422Z,68.35
2019-05-02T08:42:15.223Z,65.25
2019-05-02T08:44:51.184Z,65.90
2019-05-02T08:47:19.181Z,65.43
2019-05-02T08:49:49.357Z,66.95
2019-05-02T08:52:18.416Z,58.73
2019-05-02T08:54:48.088Z,61.37
2019-05-02T08:57:17.514Z,62.53
2019-05-02T08:59:47.112Z,59.13
2019-05-02T09:02:16.496Z,59.83
2019-05-02T09:04:57.879Z,54.67
2019-05-02T09:07:17.103Z,58.77
2019-05-02T09:09:46.528Z,57.38
2019-05-02T09:12:16.191Z,53.50
2019-05-02T09:14:47.610Z,53.80
2019-05-02T09:17:17.014Z,53.40
2019-05-02T09:19:59.592Z,56.05
2019-05-02T09:22:17.635Z,54.37
2019-05-02T09:24:47.010Z,57.17
2019-05-02T09:27:16.740Z,55.00
2019-05-02T09:29:46.192Z,51.10
2019-05-02T09:32:17.232Z,47.00
2019-05-02T09:34:47.994Z,53.45
2019-05-02T09:37:17.402Z,53.73
2019-05-02T09:39:46.809Z,54.58
2019-05-02T09:42:18.871Z,52.80
2019-05-02T09:44:47.960Z,49.48
2019-05-02T09:47:27.433Z,45.45
2019-05-02T09:50:07.301Z,43.97
2019-05-02T09:52:39.805Z,49.07
2019-05-02T09:55:12.138Z,48.70
2019-05-02T09:57:42.751Z,45.88
2019-05-02T10:00:43.107Z,48.20
2019-05-02T10:03:13.329Z,48.23
2019-05-02T10:05:43.270Z,44.85
2019-05-02T10:08:13.880Z,44.00
2019-05-02T10:10:45.879Z,41.70
2019-05-02T10:13:15.337Z,48.28
2019-05-02T10:15:44.912Z,41.65
2019-05-02T10:18:14.755Z,43.33
2019-05-02T10:20:44.415Z,35.80
2019-05-02T10:23:19.451Z,34.88
2019-05-02T10:25:46.960Z,34.47
2019-05-02T10:28:16.665Z,43.38
2019-05-02T10:30:47.340Z,48.87
2019-05-02T10:33:17.388Z,41.77
2019-05-02T10:35:48.389Z,38.15
2019-05-02T10:38:19.453Z,37.65
2019-05-02T10:40:54.571Z,38.25
2019-05-02T10:43:22.181Z,42.67
2019-05-02T10:45:56.521Z,37.10
2019-05-02T10:48:28.178Z,36.30
2019-05-02T10:51:13.294Z,38.37
2019-05-02T10:53:47.077Z,32.87
2019-05-02T10:56:13.825Z,31.33
2019-05-02T10:58:43.274Z,32.35
2019-05-02T11:01:14.571Z,30.72
2019-05-02T11:03:47.456Z,33.90
2019-05-02T11:06:16.930Z,30.95
2019-05-02T11:08:46.362Z,32.73
2019-05-02T11:11:15.868Z,33.92
2019-05-02T11:14:05.674Z,29.30
2019-05-02T11:16:44.489Z,35.33
2019-05-02T11:19:15.529Z,33.75
2019-05-02T11:21:55.787Z,30.52
2019-05-02T11:24:16.746Z,29.05
2019-05-02T11:26:46.160Z,30.35
2019-05-02T11:29:15.562Z,26.42
2019-05-02T11:31:45.328Z,23.53
2019-05-02T11:34:14.701Z,24.65
2019-05-02T11:36:44.151Z,28.32
2019-05-02T11:39:23.831Z,27.60
2019-05-02T11:41:45.414Z,26.90
2019-05-02T11:44:15.131Z,29.45
2019-05-02T11:46:46.867Z,23.65
2019-05-02T11:49:15.962Z,24.17
2019-05-02T11:51:47.017Z,25.80
2019-05-02T11:54:16.499Z,23.57
2019-05-02T11:56:48.742Z,24.75
2019-05-02T11:59:22.624Z,22.93
2019-05-02T12:01:59.730Z,21.63
2019-05-02T12:04:24.099Z,27.37
2019-05-02T12:07:00.950Z,24.20
2019-05-02T12:09:25.057Z,27.10
2019-05-02T12:11:56.630Z,27.33
2019-05-02T12:14:27.536Z,25.40
2019-05-02T12:16:56.930Z,25.63
2019-05-02T12:19:26.658Z,22.87
2019-05-02T12:21:57.395Z,25.23
2019-05-02T12:24:26.792Z,24.07
2019-05-02T12:26:56.246Z,25.60
2019-05-02T12:29:25.656Z,36.00
2019-05-02T12:31:56.495Z,24.93
2019-05-02T12:34:47.168Z,26.63
2019-05-02T12:37:16.631Z,23.42
2019-05-02T12:39:46.373Z,22.32
2019-05-02T12:42:16.106Z,22.67
2019-05-02T12:44:45.849Z,26.33
2019-05-02T12:47:15.243Z,25.15
2019-05-02T12:49:44.631Z,27.03
2019-05-02T12:52:14.105Z,30.82
2019-05-02T12:54:43.509Z,26.90
2019-05-02T12:57:12.971Z,28.83
2019-05-02T12:59:42.409Z,30.85
2019-05-02T13:02:13.515Z,32.50
2019-05-02T13:04:43.033Z,31.50
2019-05-02T13:07:12.848Z,29.32
2019-05-02T13:09:42.595Z,34.90
2019-05-02T13:12:13.968Z,35.47
2019-05-02T13:14:43.405Z,35.90
2019-05-02T13:17:12.920Z,37.23
2019-05-02T13:19:55.194Z,38.15
2019-05-02T13:22:24.222Z,34.90
2019-05-02T13:24:56.386Z,34.23
2019-05-02T13:27:26.101Z,34.00
2019-05-02T13:29:55.841Z,35.45
2019-05-02T13:32:31.956Z,34.35
2019-05-02T13:35:02.473Z,38.20
2019-05-02T13:37:32.131Z,37.60
2019-05-02T13:40:03.349Z,39.33
2019-05-02T13:42:33.700Z,41.57
2019-05-02T13:45:08.066Z,41.10
2019-05-02T13:47:38.416Z,39.18
2019-05-02T13:50:09.382Z,34.88
2019-05-02T13:52:38.846Z,37.83
2019-05-02T13:55:11.803Z,41.83
2019-05-02T13:57:45.348Z,38.03
2019-05-02T14:00:15.735Z,38.10
2019-05-02T14:03:06.108Z,38.63
2019-05-02T14:05:41.333Z,41.37
2019-05-02T14:08:16.220Z,42.00
2019-05-02T14:10:49.931Z,41.23
2019-05-02T14:13:19.353Z,39.50
2019-05-02T14:15:48.795Z,38.30
2019-05-02T14:18:21.723Z,45.58
2019-05-02T14:20:49.535Z,42.62
2019-05-02T14:23:18.923Z,46.33
2019-05-02T14:25:48.383Z,42.17
2019-05-02T14:28:17.837Z,42.45
2019-05-02T14:30:47.233Z,45.53
2019-05-02T14:33:18.692Z,44.30
2019-05-02T14:35:48.115Z,42.17
2019-05-02T14:38:17.580Z,43.77
2019-05-02T14:40:49.539Z,46.70
2019-05-02T14:43:38.263Z,49.13
2019-05-02T14:46:09.096Z,48.17
2019-05-02T14:48:45.034Z,48.23
2019-05-02T14:51:16.558Z,46.30
2019-05-02T14:53:43.645Z,50.50
2019-05-02T14:56:14.847Z,49.40
2019-05-02T14:58:44.235Z,49.83
2019-05-02T15:01:17.175Z,49.15
2019-05-02T15:03:45.067Z,51.85
2019-05-02T15:06:14.588Z,51.43
2019-05-02T15:08:45.044Z,50.85
2019-05-02T15:11:14.591Z,55.40
2019-05-02T15:13:44.076Z,53.48
2019-05-02T15:16:17.768Z,57.60
2019-05-02T15:18:47.577Z,45.17
2019-05-02T15:21:22.623Z,23.67
2019-05-02T15:23:54.433Z,17.50
2019-05-02T15:26:26.352Z,16.45
2019-05-02T15:28:54.492Z,16.90
2019-05-02T15:31:31.590Z,15.40
2019-05-02T15:34:05.147Z,13.40
2019-05-02T15:36:37.040Z,11.03
2019-05-02T15:41:44.918Z,13.00
2019-05-02T15:44:13.230Z,13.43
2019-05-02T15:46:42.697Z,15.63
2019-05-02T15:49:12.362Z,14.63
2019-05-02T15:51:43.700Z,16.20
2019-05-02T15:54:18.846Z,12.60
2019-05-02T15:57:03.007Z,12.90
2019-05-02T15:59:41.675Z,13.60
2019-05-02T16:02:08.324Z,14.97
2019-05-02T16:04:41.773Z,15.10
2019-05-02T16:07:12.199Z,19.40
2019-05-02T16:09:42.355Z,16.67
2019-05-02T16:12:12.358Z,19.07
2019-05-02T16:14:42.435Z,20.20
2019-05-02T16:17:12.753Z,20.33
2019-05-02T16:19:45.554Z,18.93
2019-05-02T16:22:19.303Z,20.90
2019-05-02T16:24:53.355Z,18.13
2019-05-02T16:27:27.695Z,17.77
2019-05-02T16:29:58.439Z,20.53
2019-05-02T16:32:31.017Z,18.27
2019-05-02T16:35:07.251Z,19.17
2019-05-02T16:37:32.554Z,19.23
2019-05-02T16:40:02.652Z,18.43
2019-05-02T16:42:32.815Z,20.40
2019-05-02T16:45:02.776Z,17.13
2019-05-02T16:47:32.708Z,21.47
2019-05-02T16:50:02.578Z,19.60
2019-05-02T16:52:32.730Z,20.97
2019-05-02T16:55:02.961Z,21.33
2019-05-02T16:57:35.096Z,20.93
2019-05-02T17:00:06.380Z,21.33
2019-05-02T17:02:37.971Z,23.07
2019-05-02T17:05:09.684Z,21.27
2019-05-02T17:07:42.893Z,21.17
2019-05-02T17:10:17.625Z,21.80
2019-05-02T17:12:47.272Z,23.22
2019-05-02T17:15:36.674Z,19.30
2019-05-02T17:18:12.856Z,18.80
2019-05-02T17:20:39.366Z,18.70
2019-05-02T17:23:08.778Z,16.30
2019-05-02T17:25:38.325Z,19.20
2019-05-02T17:28:10.476Z,14.83
2019-05-02T17:30:40.730Z,13.97
2019-05-02T17:33:14.314Z,14.68
2019-05-02T17:35:49.494Z,15.00
2019-05-02T17:38:14.106Z,15.23
2019-05-02T17:40:43.562Z,14.60
2019-05-02T17:43:12.997Z,18.00
2019-05-02T17:45:42.464Z,17.17
2019-05-02T17:48:16.038Z,16.17
2019-05-02T17:50:59.278Z,16.43
2019-05-02T17:53:27.724Z,17.20
2019-05-02T17:55:57.205Z,16.95
2019-05-02T17:58:26.624Z,18.00
2019-05-02T18:01:00.159Z,20.23
2019-05-02T18:03:31.247Z,21.93
2019-05-02T18:06:00.194Z,19.40
2019-05-02T18:08:31.935Z,22.37
2019-05-02T18:11:02.807Z,19.70
2019-05-02T18:13:33.896Z,22.87
2019-05-02T18:16:07.685Z,22.33
2019-05-02T18:18:37.597Z,22.60
2019-05-02T18:21:28.679Z,22.23
2019-05-02T18:23:57.190Z,23.77
2019-05-02T18:26:28.075Z,21.85
2019-05-02T18:29:05.033Z,24.73
2019-05-02T18:31:28.702Z,25.95
2019-05-02T18:33:58.101Z,22.53
2019-05-02T18:36:27.653Z,25.83
2019-05-02T18:39:00.526Z,26.55
2019-05-02T18:41:28.349Z,23.03
2019-05-02T18:43:57.892Z,23.35
2019-05-02T18:46:27.302Z,26.67
2019-05-02T18:48:56.855Z,22.85
2019-05-02T18:51:26.344Z,24.60
2019-05-02T18:53:58.164Z,23.67
2019-05-02T18:56:26.884Z,24.03
2019-05-02T18:58:56.275Z,25.55
2019-05-02T19:01:25.942Z,27.05
2019-05-02T19:03:56.319Z,30.17
2019-05-02T19:06:27.974Z,24.93
2019-05-02T19:09:06.964Z,26.49
2019-05-02T19:11:36.814Z,29.33
2019-05-02T19:14:06.352Z,25.97
2019-05-02T19:16:35.861Z,26.70
2019-05-02T19:19:05.391Z,27.93
2019-05-02T19:21:39.206Z,25.90
2019-05-02T19:24:06.727Z,27.70
2019-05-02T19:26:43.414Z,25.93
2019-05-02T19:29:14.035Z,28.17
2019-05-02T19:31:46.139Z,30.48
2019-05-02T19:34:16.751Z,28.40
2019-05-02T19:36:46.394Z,28.20
2019-05-02T19:39:15.791Z,29.07
2019-05-02T19:41:45.691Z,27.77
2019-05-02T19:44:15.508Z,30.87
2019-05-02T19:46:45.205Z,34.30
2019-05-02T19:49:16.325Z,32.53
2019-05-02T19:51:50.379Z,32.20
2019-05-02T19:54:17.393Z,31.20
2019-05-02T19:56:47.680Z,31.07
2019-05-02T19:59:24.577Z,30.80
2019-05-02T20:01:48.302Z,31.60
2019-05-02T20:04:17.927Z,32.03
2019-05-02T20:06:47.380Z,32.03
2019-05-02T20:09:16.878Z,34.33
2019-05-02T20:11:46.267Z,33.87
2019-05-02T20:14:15.786Z,33.50
2019-05-02T20:16:49.951Z,34.77
2019-05-02T20:19:23.239Z,36.70
2019-05-02T20:21:52.190Z,38.00
2019-05-02T20:24:22.687Z,32.80
2019-05-02T20:26:55.985Z,38.03
2019-05-02T20:29:23.761Z,37.23
2019-05-02T20:31:53.229Z,39.73
2019-05-02T20:34:22.839Z,40.03
2019-05-02T20:36:52.236Z,41.45
2019-05-02T20:39:22.495Z,41.03
2019-05-02T20:41:53.042Z,36.90
2019-05-02T20:44:22.554Z,37.23
2019-05-02T20:46:51.938Z,41.00
2019-05-02T20:49:21.305Z,39.63
2019-05-02T20:51:51.836Z,38.70
2019-05-02T20:54:21.339Z,38.13
2019-05-02T20:56:52.006Z,39.60
2019-05-02T20:59:21.933Z,39.70
2019-05-02T21:01:52.311Z,36.37
2019-05-02T21:04:22.864Z,39.63
2019-05-02T21:07:11.832Z,36.13
2019-05-02T21:09:42.972Z,38.03
2019-05-02T21:12:12.662Z,35.33
2019-05-02T21:14:42.191Z,37.13
2019-05-02T21:17:12.809Z,34.77
2019-05-02T21:19:42.360Z,36.90
2019-05-02T21:22:22.248Z,30.17
2019-05-02T21:24:52.919Z,34.27
2019-05-02T21:27:22.338Z,32.77
2019-05-02T21:29:52.261Z,31.50
2019-05-02T21:32:22.885Z,24.70
2019-05-02T21:34:52.471Z,21.53
2019-05-02T21:37:22.713Z,33.33
2019-05-02T21:39:52.464Z,17.47
2019-05-02T21:42:22.606Z,17.73
2019-05-02T21:44:52.217Z,16.30
2019-05-02T21:47:22.485Z,18.63
2019-05-02T21:49:53.723Z,16.37
2019-05-02T21:52:31.857Z,13.30
2019-05-02T21:55:08.497Z,13.10
2019-05-02T21:57:37.875Z,14.97
2019-05-02T22:00:19.308Z,18.63
2019-05-02T22:02:49.041Z,14.00
2019-05-02T22:05:18.672Z,14.10
2019-05-02T22:07:48.039Z,14.17
2019-05-02T22:10:17.508Z,19.77
2019-05-02T22:12:46.873Z,14.23
2019-05-02T22:15:16.252Z,17.20
2019-05-02T22:17:45.621Z,14.50
2019-05-02T22:20:15.189Z,15.10
2019-05-02T22:22:44.579Z,13.13
2019-05-02T22:25:13.952Z,18.50
2019-05-02T22:27:43.579Z,15.50
2019-05-02T22:30:13.300Z,16.57
2019-05-02T22:32:42.821Z,13.17
2019-05-02T22:35:12.698Z,16.27
2019-05-02T22:37:43.788Z,18.20
2019-05-02T22:40:15.576Z,15.97
2019-05-02T22:42:44.936Z,16.13
2019-05-02T22:45:14.756Z,19.67
2019-05-02T22:47:44.137Z,21.13
2019-05-02T22:50:14.181Z,20.23
2019-05-02T22:52:43.670Z,19.50
2019-05-02T22:55:13.404Z,17.50
2019-05-02T22:57:43.974Z,22.90
2019-05-02T23:00:14.590Z,18.30
2019-05-02T23:02:43.964Z,18.10
2019-05-02T23:05:13.420Z,20.10
2019-05-02T23:07:42.803Z,16.70
2019-05-02T23:10:12.689Z,16.50
2019-05-02T23:12:42.424Z,19.07
2019-05-02T23:15:12.593Z,19.60
2019-05-02T23:17:42.816Z,17.03
2019-05-02T23:20:12.796Z,17.77
2019-05-02T23:22:42.292Z,17.17
2019-05-02T23:25:19.131Z,20.40
2019-05-02T23:27:51.916Z,18.37
2019-05-02T23:30:42.431Z,21.50
2019-05-02T23:33:12.961Z,27.13
2019-05-02T23:35:43.061Z,21.60
2019-05-02T23:38:12.655Z,24.97
2019-05-02T23:40:42.160Z,27.30
2019-05-02T23:43:12.507Z,21.30
2019-05-02T23:45:42.325Z,24.23
2019-05-02T23:48:12.619Z,25.10
2019-05-02T23:50:42.151Z,22.53
2019-05-02T23:53:12.814Z,21.27
2019-05-02T23:55:42.578Z,26.03
2019-05-02T23:58:12.041Z,24.50
